sensor_id;sensor_type;location;lat;lon;timestamp;pressure;altitude;pressure_sealevel;temperature;humidity
59877;BME280;74472;51.140;17.184;2024-01-27T00:02:16;100709.38;;;5.59;80.96
59877;BME280;74472;51.140;17.184;2024-01-27T00:04:42;100714.56;;;5.60;80.85
59877;BME280;74472;51.140;17.184;2024-01-27T00:07:07;100723.25;;;5.61;80.81
59877;BME280;74472;51.140;17.184;2024-01-27T00:09:32;100723.38;;;5.58;80.69
59877;BME280;74472;51.140;17.184;2024-01-27T00:11:58;100725.16;;;5.57;80.67
59877;BME280;74472;51.140;17.184;2024-01-27T00:14:23;100727.78;;;5.57;80.87
59877;BME280;74472;51.140;17.184;2024-01-27T00:16:48;100728.75;;;5.55;81.02
59877;BME280;74472;51.140;17.184;2024-01-27T00:19:13;100739.94;;;5.58;80.98
59877;BME280;74472;51.140;17.184;2024-01-27T00:21:40;100758.22;;;5.60;79.85
59877;BME280;74472;51.140;17.184;2024-01-27T00:24:05;100746.03;;;5.59;80.24
59877;BME280;74472;51.140;17.184;2024-01-27T00:26:30;100742.50;;;5.60;80.31
59877;BME280;74472;51.140;17.184;2024-01-27T00:28:56;100749.44;;;5.61;80.37
59877;BME280;74472;51.140;17.184;2024-01-27T00:31:22;100752.06;;;5.61;80.28
59877;BME280;74472;51.140;17.184;2024-01-27T00:33:47;100746.72;;;5.62;80.06
59877;BME280;74472;51.140;17.184;2024-01-27T00:36:13;100758.94;;;5.63;80.17
59877;BME280;74472;51.140;17.184;2024-01-27T00:38:38;100758.94;;;5.63;80.23
59877;BME280;74472;51.140;17.184;2024-01-27T00:41:04;100764.16;;;5.63;80.23
59877;BME280;74472;51.140;17.184;2024-01-27T00:43:30;100770.25;;;5.64;80.45
59877;BME280;74472;51.140;17.184;2024-01-27T00:45:55;100751.06;;;5.63;80.38
59877;BME280;74472;51.140;17.184;2024-01-27T00:48:21;100758.09;;;5.63;80.06
59877;BME280;74472;51.140;17.184;2024-01-27T00:50:47;100750.28;;;5.61;79.70
59877;BME280;74472;51.140;17.184;2024-01-27T00:53:13;100752.06;;;5.61;80.08
59877;BME280;74472;51.140;17.184;2024-01-27T00:55:38;100762.44;;;5.62;80.01
59877;BME280;74472;51.140;17.184;2024-01-27T00:58:03;100763.22;;;5.64;79.53
59877;BME280;74472;51.140;17.184;2024-01-27T01:00:28;100753.75;;;5.62;79.77
59877;BME280;74472;51.140;17.184;2024-01-27T01:02:54;100756.31;;;5.63;79.45
59877;BME280;74472;51.140;17.184;2024-01-27T01:05:19;100758.00;;;5.64;79.21
59877;BME280;74472;51.140;17.184;2024-01-27T01:07:44;100756.34;;;5.62;79.48
59877;BME280;74472;51.140;17.184;2024-01-27T01:10:10;100765.16;;;5.61;79.33
59877;BME280;74472;51.140;17.184;2024-01-27T01:12:35;100760.03;;;5.58;79.06
59877;BME280;74472;51.140;17.184;2024-01-27T01:15:00;100760.03;;;5.58;79.22
59877;BME280;74472;51.140;17.184;2024-01-27T01:17:25;100764.31;;;5.60;79.60
59877;BME280;74472;51.140;17.184;2024-01-27T01:19:51;100773.13;;;5.58;79.58
59877;BME280;74472;51.140;17.184;2024-01-27T01:22:16;100784.44;;;5.58;79.55
59877;BME280;74472;51.140;17.184;2024-01-27T01:24:41;100779.22;;;5.58;80.04
59877;BME280;74472;51.140;17.184;2024-01-27T01:27:07;100775.03;;;5.54;80.20
59877;BME280;74472;51.140;17.184;2024-01-27T01:29:32;100777.75;;;5.53;80.41
59877;BME280;74472;51.140;17.184;2024-01-27T01:31:58;100777.88;;;5.50;80.40
59877;BME280;74472;51.140;17.184;2024-01-27T01:34:23;100789.19;;;5.50;80.14
59877;BME280;74472;51.140;17.184;2024-01-27T01:36:49;100794.69;;;5.44;79.99
59877;BME280;74472;51.140;17.184;2024-01-27T01:39:14;100795.75;;;5.40;79.46
59877;BME280;74472;51.140;17.184;2024-01-27T01:41:40;100786.25;;;5.37;79.78
59877;BME280;74472;51.140;17.184;2024-01-27T01:44:06;100781.19;;;5.33;79.61
59877;BME280;74472;51.140;17.184;2024-01-27T01:46:32;100781.50;;;5.27;80.06
59877;BME280;74472;51.140;17.184;2024-01-27T01:48:57;100779.78;;;5.26;79.98
59877;BME280;74472;51.140;17.184;2024-01-27T01:51:23;100772.00;;;5.24;79.74
59877;BME280;74472;51.140;17.184;2024-01-27T01:53:49;100782.53;;;5.23;79.91
59877;BME280;74472;51.140;17.184;2024-01-27T01:56:17;100777.38;;;5.21;79.56
59877;BME280;74472;51.140;17.184;2024-01-27T01:58:43;100789.53;;;5.22;79.32
59877;BME280;74472;51.140;17.184;2024-01-27T02:01:09;100786.16;;;5.20;79.24
59877;BME280;74472;51.140;17.184;2024-01-27T02:03:34;100794.00;;;5.20;79.19
59877;BME280;74472;51.140;17.184;2024-01-27T02:05:59;100781.09;;;5.15;79.07
59877;BME280;74472;51.140;17.184;2024-01-27T02:08:25;100789.06;;;5.12;79.22
59877;BME280;74472;51.140;17.184;2024-01-27T02:10:50;100769.06;;;5.11;79.18
59877;BME280;74472;51.140;17.184;2024-01-27T02:13:20;100790.03;;;5.10;79.06
59877;BME280;74472;51.140;17.184;2024-01-27T02:15:46;100791.91;;;5.08;79.22
59877;BME280;74472;51.140;17.184;2024-01-27T02:18:11;100785.03;;;5.05;79.22
59877;BME280;74472;51.140;17.184;2024-01-27T02:20:37;100798.91;;;5.07;78.84
59877;BME280;74472;51.140;17.184;2024-01-27T02:23:06;100785.03;;;5.05;78.82
59877;BME280;74472;51.140;17.184;2024-01-27T02:25:32;100805.09;;;5.05;78.45
59877;BME280;74472;51.140;17.184;2024-01-27T02:27:58;100801.63;;;5.04;78.60
59877;BME280;74472;51.140;17.184;2024-01-27T02:30:23;100815.59;;;5.03;78.59
59877;BME280;74472;51.140;17.184;2024-01-27T02:32:49;100802.59;;;5.02;78.30
59877;BME280;74472;51.140;17.184;2024-01-27T02:35:14;100798.19;;;5.04;78.49
59877;BME280;74472;51.140;17.184;2024-01-27T02:37:41;100805.16;;;5.03;78.33
59877;BME280;74472;51.140;17.184;2024-01-27T02:40:07;100812.09;;;5.04;78.62
59877;BME280;74472;51.140;17.184;2024-01-27T02:42:33;100801.63;;;5.04;78.50
59877;BME280;74472;51.140;17.184;2024-01-27T02:44:58;100802.53;;;5.03;78.27
59877;BME280;74472;51.140;17.184;2024-01-27T02:47:24;100825.22;;;5.03;78.21
59877;BME280;74472;51.140;17.184;2024-01-27T02:49:49;100830.53;;;5.01;77.61
59877;BME280;74472;51.140;17.184;2024-01-27T02:52:14;100826.16;;;5.02;77.59
59877;BME280;74472;51.140;17.184;2024-01-27T02:54:40;100834.06;;;5.00;77.79
59877;BME280;74472;51.140;17.184;2024-01-27T02:57:05;100838.38;;;5.01;77.77
59877;BME280;74472;51.140;17.184;2024-01-27T02:59:30;100845.31;;;5.02;78.12
59877;BME280;74472;51.140;17.184;2024-01-27T03:01:55;100850.53;;;5.02;77.95
59877;BME280;74472;51.140;17.184;2024-01-27T03:04:22;100860.06;;;5.03;77.71
59877;BME280;74472;51.140;17.184;2024-01-27T03:06:47;100849.56;;;5.05;77.81
59877;BME280;74472;51.140;17.184;2024-01-27T03:09:12;100862.56;;;5.06;77.40
59877;BME280;74472;51.140;17.184;2024-01-27T03:11:38;100859.09;;;5.06;77.20
59877;BME280;74472;51.140;17.184;2024-01-27T03:14:04;100858.25;;;5.05;76.90
59877;BME280;74472;51.140;17.184;2024-01-27T03:16:29;100861.81;;;5.04;76.64
59877;BME280;74472;51.140;17.184;2024-01-27T03:18:54;100856.56;;;5.04;76.92
59877;BME280;74472;51.140;17.184;2024-01-27T03:21:20;100860.06;;;5.03;76.82
59877;BME280;74472;51.140;17.184;2024-01-27T03:23:45;100862.78;;;5.02;76.58
59877;BME280;74472;51.140;17.184;2024-01-27T03:26:10;100866.22;;;5.02;76.65
59877;BME280;74472;51.140;17.184;2024-01-27T03:28:36;100858.38;;;5.02;76.83
59877;BME280;74472;51.140;17.184;2024-01-27T03:31:01;100854.06;;;5.01;76.67
59877;BME280;74472;51.140;17.184;2024-01-27T03:33:26;100852.38;;;5.00;76.81
59877;BME280;74472;51.140;17.184;2024-01-27T03:35:54;100867.94;;;5.03;76.56
59877;BME280;74472;51.140;17.184;2024-01-27T03:38:19;100867.94;;;5.03;76.32
59877;BME280;74472;51.140;17.184;2024-01-27T03:40:45;100864.53;;;5.01;76.24
59877;BME280;74472;51.140;17.184;2024-01-27T03:43:10;100864.53;;;5.01;76.56
59877;BME280;74472;51.140;17.184;2024-01-27T03:45:35;100869.78;;;5.01;76.15
59877;BME280;74472;51.140;17.184;2024-01-27T03:48:01;100868.84;;;5.02;76.05
59877;BME280;74472;51.140;17.184;2024-01-27T03:50:26;100880.22;;;5.01;75.66
59877;BME280;74472;51.140;17.184;2024-01-27T03:52:51;100879.31;;;5.02;75.99
59877;BME280;74472;51.140;17.184;2024-01-27T03:55:16;100879.38;;;5.01;75.99
59877;BME280;74472;51.140;17.184;2024-01-27T03:57:42;100889.00;;;5.00;76.23
59877;BME280;74472;51.140;17.184;2024-01-27T04:00:07;100893.22;;;5.03;75.80
59877;BME280;74472;51.140;17.184;2024-01-27T04:02:33;100897.63;;;5.02;75.94
59877;BME280;74472;51.140;17.184;2024-01-27T04:04:58;100897.69;;;5.01;75.37
59877;BME280;74472;51.140;17.184;2024-01-27T04:07:24;100902.13;;;4.99;75.58
59877;BME280;74472;51.140;17.184;2024-01-27T04:09:49;100902.22;;;4.97;74.82
59877;BME280;74472;51.140;17.184;2024-01-27T04:12:14;100900.47;;;4.96;75.17
59877;BME280;74472;51.140;17.184;2024-01-27T04:14:40;100898.78;;;4.95;75.37
59877;BME280;74472;51.140;17.184;2024-01-27T04:17:05;100909.25;;;4.95;74.47
59877;BME280;74472;51.140;17.184;2024-01-27T04:19:30;100904.94;;;4.94;75.37
59877;BME280;74472;51.140;17.184;2024-01-27T04:21:56;100908.44;;;4.93;74.70
59877;BME280;74472;51.140;17.184;2024-01-27T04:24:21;100911.13;;;4.91;74.83
59877;BME280;74472;51.140;17.184;2024-01-27T04:26:46;100905.91;;;4.91;75.01
59877;BME280;74472;51.140;17.184;2024-01-27T04:29:12;100901.53;;;4.92;74.80
59877;BME280;74472;51.140;17.184;2024-01-27T04:31:41;100898.97;;;4.90;74.78
59877;BME280;74472;51.140;17.184;2024-01-27T04:34:07;100912.09;;;4.89;74.90
59877;BME280;74472;51.140;17.184;2024-01-27T04:36:32;100919.16;;;4.87;75.17
59877;BME280;74472;51.140;17.184;2024-01-27T04:38:58;100903.47;;;4.87;74.94
59877;BME280;74472;51.140;17.184;2024-01-27T04:41:23;100924.38;;;4.87;74.82
59877;BME280;74472;51.140;17.184;2024-01-27T04:43:48;100922.69;;;4.86;74.79
59877;BME280;74472;51.140;17.184;2024-01-27T04:46:14;100919.28;;;4.84;74.95
59877;BME280;74472;51.140;17.184;2024-01-27T04:48:39;100914.84;;;4.86;75.06
59877;BME280;74472;51.140;17.184;2024-01-27T04:51:04;100924.53;;;4.84;74.99
59877;BME280;74472;51.140;17.184;2024-01-27T04:53:30;100909.72;;;4.83;74.75
59877;BME280;74472;51.140;17.184;2024-01-27T04:55:55;100916.69;;;4.84;74.44
59877;BME280;74472;51.140;17.184;2024-01-27T04:58:20;100917.56;;;4.83;74.51
59877;BME280;74472;51.140;17.184;2024-01-27T05:00:46;100927.13;;;4.84;74.45
59877;BME280;74472;51.140;17.184;2024-01-27T05:03:11;100905.31;;;4.85;74.82
59877;BME280;74472;51.140;17.184;2024-01-27T05:05:42;100911.50;;;4.82;74.83
59877;BME280;74472;51.140;17.184;2024-01-27T05:08:07;100921.91;;;4.84;74.38
59877;BME280;74472;51.140;17.184;2024-01-27T05:10:33;100909.72;;;4.83;74.48
59877;BME280;74472;51.140;17.184;2024-01-27T05:12:58;100916.72;;;4.82;73.85
59877;BME280;74472;51.140;17.184;2024-01-27T05:15:24;100920.31;;;4.80;74.13
59877;BME280;74472;51.140;17.184;2024-01-27T05:17:50;100923.00;;;4.78;74.01
59877;BME280;74472;51.140;17.184;2024-01-27T05:20:15;100943.00;;;4.79;74.45
59877;BME280;74472;51.140;17.184;2024-01-27T05:22:40;100916.00;;;4.79;74.46
59877;BME280;74472;51.140;17.184;2024-01-27T05:25:06;100928.16;;;4.80;74.58
59877;BME280;74472;51.140;17.184;2024-01-27T05:27:31;100930.00;;;4.78;74.46
59877;BME280;74472;51.140;17.184;2024-01-27T05:29:56;100931.69;;;4.79;74.33
59877;BME280;74472;51.140;17.184;2024-01-27T05:32:22;100936.91;;;4.79;74.51
59877;BME280;74472;51.140;17.184;2024-01-27T05:34:47;100933.44;;;4.78;74.42
59877;BME280;74472;51.140;17.184;2024-01-27T05:37:12;100917.75;;;4.78;74.41
59877;BME280;74472;51.140;17.184;2024-01-27T05:39:38;100937.03;;;4.76;74.38
59877;BME280;74472;51.140;17.184;2024-01-27T05:42:03;100936.31;;;4.72;74.22
59877;BME280;74472;51.140;17.184;2024-01-27T05:44:29;100941.59;;;4.70;74.40
59877;BME280;74472;51.140;17.184;2024-01-27T05:46:54;100952.28;;;4.64;74.54
59877;BME280;74472;51.140;17.184;2024-01-27T05:49:19;100934.84;;;4.65;74.75
59877;BME280;74472;51.140;17.184;2024-01-27T05:51:45;100944.44;;;4.64;74.14
59877;BME280;74472;51.140;17.184;2024-01-27T05:54:10;100947.00;;;4.66;74.12
59877;BME280;74472;51.140;17.184;2024-01-27T05:56:39;100947.91;;;4.65;74.16
59877;BME280;74472;51.140;17.184;2024-01-27T05:59:05;100953.06;;;4.66;74.29
59877;BME280;74472;51.140;17.184;2024-01-27T06:01:31;100955.91;;;4.60;74.12
59877;BME280;74472;51.140;17.184;2024-01-27T06:03:56;100953.13;;;4.65;74.35
59877;BME280;74472;51.140;17.184;2024-01-27T06:06:21;100961.94;;;4.62;74.28
59877;BME280;74472;51.140;17.184;2024-01-27T06:08:47;100966.38;;;4.60;74.29
59877;BME280;74472;51.140;17.184;2024-01-27T06:11:12;100961.25;;;4.57;74.45
59877;BME280;74472;51.140;17.184;2024-01-27T06:13:37;100968.25;;;4.57;74.85
59877;BME280;74472;51.140;17.184;2024-01-27T06:16:08;100966.78;;;4.50;74.60
59877;BME280;74472;51.140;17.184;2024-01-27T06:18:36;100985.03;;;4.51;74.74
59877;BME280;74472;51.140;17.184;2024-01-27T06:21:02;100977.34;;;4.46;74.67
59877;BME280;74472;51.140;17.184;2024-01-27T06:23:28;100990.41;;;4.46;74.76
59877;BME280;74472;51.140;17.184;2024-01-27T06:25:53;101001.81;;;4.44;75.08
59877;BME280;74472;51.140;17.184;2024-01-27T06:28:18;101000.94;;;4.45;75.12
59877;BME280;74472;51.140;17.184;2024-01-27T06:30:44;101007.84;;;4.46;75.21
59877;BME280;74472;51.140;17.184;2024-01-27T06:33:09;101005.34;;;4.43;75.15
59877;BME280;74472;51.140;17.184;2024-01-27T06:35:34;101013.16;;;4.44;74.91
59877;BME280;74472;51.140;17.184;2024-01-27T06:37:59;100977.44;;;4.43;75.40
59877;BME280;74472;51.140;17.184;2024-01-27T06:40:25;100985.28;;;4.43;75.44
59877;BME280;74472;51.140;17.184;2024-01-27T06:42:51;101000.97;;;4.43;75.19
59877;BME280;74472;51.140;17.184;2024-01-27T06:45:16;100988.75;;;4.44;75.15
59877;BME280;74472;51.140;17.184;2024-01-27T06:47:41;100968.84;;;4.41;75.09
59877;BME280;74472;51.140;17.184;2024-01-27T06:50:07;100982.75;;;4.42;75.42
59877;BME280;74472;51.140;17.184;2024-01-27T06:52:32;100989.75;;;4.41;75.40
59877;BME280;74472;51.140;17.184;2024-01-27T06:54:57;100985.47;;;4.39;75.05
59877;BME280;74472;51.140;17.184;2024-01-27T06:57:23;100983.78;;;4.38;75.59
59877;BME280;74472;51.140;17.184;2024-01-27T06:59:51;100982.78;;;4.40;75.63
59877;BME280;74472;51.140;17.184;2024-01-27T07:02:27;100985.34;;;4.42;75.54
59877;BME280;74472;51.140;17.184;2024-01-27T07:04:54;100982.75;;;4.42;75.62
59877;BME280;74472;51.140;17.184;2024-01-27T07:07:25;100992.34;;;4.41;75.45
59877;BME280;74472;51.140;17.184;2024-01-27T07:09:52;100988.88;;;4.41;75.61
59877;BME280;74472;51.140;17.184;2024-01-27T07:12:17;100985.47;;;4.39;75.70
59877;BME280;74472;51.140;17.184;2024-01-27T07:14:42;100981.16;;;4.38;75.74
59877;BME280;74472;51.140;17.184;2024-01-27T07:17:08;100981.94;;;4.40;75.75
59877;BME280;74472;51.140;17.184;2024-01-27T07:19:33;100980.25;;;4.39;75.54
59877;BME280;74472;51.140;17.184;2024-01-27T07:21:58;100996.78;;;4.39;75.99
59877;BME280;74472;51.140;17.184;2024-01-27T07:24:25;100988.00;;;4.40;75.93
59877;BME280;74472;51.140;17.184;2024-01-27T07:26:51;100991.50;;;4.41;76.05
59877;BME280;74472;51.140;17.184;2024-01-27T07:29:16;100992.34;;;4.41;75.99
59877;BME280;74472;51.140;17.184;2024-01-27T07:31:41;100981.94;;;4.40;76.06
59877;BME280;74472;51.140;17.184;2024-01-27T07:34:07;100988.09;;;4.39;75.88
59877;BME280;74472;51.140;17.184;2024-01-27T07:36:32;100993.19;;;4.42;76.03
59877;BME280;74472;51.140;17.184;2024-01-27T07:38:58;101004.50;;;4.42;75.79
59877;BME280;74472;51.140;17.184;2024-01-27T07:41:23;101013.19;;;4.43;75.97
59877;BME280;74472;51.140;17.184;2024-01-27T07:43:49;101032.28;;;4.45;75.87
59877;BME280;74472;51.140;17.184;2024-01-27T07:46:14;101029.69;;;4.45;75.94
59877;BME280;74472;51.140;17.184;2024-01-27T07:48:40;101020.91;;;4.46;76.19
59877;BME280;74472;51.140;17.184;2024-01-27T07:51:06;101046.09;;;4.49;76.23
59877;BME280;74472;51.140;17.184;2024-01-27T07:53:33;101032.19;;;4.48;76.13
59877;BME280;74472;51.140;17.184;2024-01-27T07:55:58;101024.22;;;4.51;76.05
59877;BME280;74472;51.140;17.184;2024-01-27T07:58:23;101015.47;;;4.52;76.00
59877;BME280;74472;51.140;17.184;2024-01-27T08:00:49;101032.84;;;4.53;76.20
59877;BME280;74472;51.140;17.184;2024-01-27T08:03:14;101031.91;;;4.56;76.18
59877;BME280;74472;51.140;17.184;2024-01-27T08:05:39;101034.44;;;4.57;76.45
59877;BME280;74472;51.140;17.184;2024-01-27T08:08:04;101037.19;;;4.54;76.12
59877;BME280;74472;51.140;17.184;2024-01-27T08:10:30;101052.72;;;4.57;76.13
59877;BME280;74472;51.140;17.184;2024-01-27T08:12:55;101042.28;;;4.57;76.19
59877;BME280;74472;51.140;17.184;2024-01-27T08:15:21;101037.00;;;4.59;76.26
59877;BME280;74472;51.140;17.184;2024-01-27T08:17:46;101031.81;;;4.57;76.17
59877;BME280;74472;51.140;17.184;2024-01-27T08:20:12;101039.63;;;4.59;76.20
59877;BME280;74472;51.140;17.184;2024-01-27T08:22:37;101048.31;;;4.59;76.40
59877;BME280;74472;51.140;17.184;2024-01-27T08:25:03;101043.06;;;4.61;76.43
59877;BME280;74472;51.140;17.184;2024-01-27T08:27:28;101055.13;;;4.63;76.50
59877;BME280;74472;51.140;17.184;2024-01-27T08:29:53;101051.66;;;4.63;76.15
59877;BME280;74472;51.140;17.184;2024-01-27T08:32:19;101071.63;;;4.65;76.34
59877;BME280;74472;51.140;17.184;2024-01-27T08:34:44;101073.31;;;4.66;76.33
59877;BME280;74472;51.140;17.184;2024-01-27T08:37:18;101078.56;;;4.66;76.54
59877;BME280;74472;51.140;17.184;2024-01-27T08:39:43;101076.75;;;4.68;76.39
59877;BME280;74472;51.140;17.184;2024-01-27T08:42:09;101078.44;;;4.69;76.28
59877;BME280;74472;51.140;17.184;2024-01-27T08:44:35;101085.41;;;4.70;76.47
59877;BME280;74472;51.140;17.184;2024-01-27T08:47:00;101081.78;;;4.73;76.62
59877;BME280;74472;51.140;17.184;2024-01-27T08:49:25;101081.75;;;4.75;76.17
59877;BME280;74472;51.140;17.184;2024-01-27T08:51:51;101089.59;;;4.75;76.30
59877;BME280;74472;51.140;17.184;2024-01-27T08:54:16;101083.41;;;4.77;76.33
59877;BME280;74472;51.140;17.184;2024-01-27T08:56:44;101098.19;;;4.78;76.31
59877;BME280;74472;51.140;17.184;2024-01-27T08:59:09;101071.13;;;4.79;76.22
59877;BME280;74472;51.140;17.184;2024-01-27T09:01:35;101071.97;;;4.80;76.22
59877;BME280;74472;51.140;17.184;2024-01-27T09:04:00;101081.53;;;4.81;75.99
59877;BME280;74472;51.140;17.184;2024-01-27T09:06:25;101067.59;;;4.80;76.28
59877;BME280;74472;51.140;17.184;2024-01-27T09:08:51;101064.00;;;4.83;76.04
59877;BME280;74472;51.140;17.184;2024-01-27T09:11:16;101076.19;;;4.84;75.78
59877;BME280;74472;51.140;17.184;2024-01-27T09:13:41;101083.06;;;4.86;76.40
59877;BME280;74472;51.140;17.184;2024-01-27T09:16:07;101079.53;;;4.87;75.95
59877;BME280;74472;51.140;17.184;2024-01-27T09:18:37;101093.28;;;4.92;76.24
59877;BME280;74472;51.140;17.184;2024-01-27T09:21:02;101100.19;;;4.95;75.99
59877;BME280;74472;51.140;17.184;2024-01-27T09:23:28;101101.97;;;4.93;76.21
59877;BME280;74472;51.140;17.184;2024-01-27T09:25:53;101103.59;;;4.97;76.33
59877;BME280;74472;51.140;17.184;2024-01-27T09:28:18;101118.38;;;4.98;76.30
59877;BME280;74472;51.140;17.184;2024-01-27T09:30:44;101118.31;;;5.00;76.04
59877;BME280;74472;51.140;17.184;2024-01-27T09:33:10;101116.56;;;5.00;75.76
59877;BME280;74472;51.140;17.184;2024-01-27T09:35:36;101117.34;;;5.02;76.07
59877;BME280;74472;51.140;17.184;2024-01-27T09:38:01;101129.56;;;5.02;75.97
59877;BME280;74472;51.140;17.184;2024-01-27T09:40:27;101130.38;;;5.04;75.80
59877;BME280;74472;51.140;17.184;2024-01-27T09:42:52;101141.69;;;5.04;75.85
59877;BME280;74472;51.140;17.184;2024-01-27T09:45:21;101150.44;;;5.03;75.87
59877;BME280;74472;51.140;17.184;2024-01-27T09:47:47;101165.16;;;5.06;75.41
59877;BME280;74472;51.140;17.184;2024-01-27T09:50:14;101155.63;;;5.05;75.78
59877;BME280;74472;51.140;17.184;2024-01-27T09:52:39;101155.63;;;5.05;75.95
59877;BME280;74472;51.140;17.184;2024-01-27T09:55:06;101152.91;;;5.08;75.94
59877;BME280;74472;51.140;17.184;2024-01-27T09:57:32;101164.13;;;5.10;76.21
59877;BME280;74472;51.140;17.184;2024-01-27T09:59:58;101171.88;;;5.13;76.04
59877;BME280;74472;51.140;17.184;2024-01-27T10:02:24;101153.53;;;5.14;76.07
59877;BME280;74472;51.140;17.184;2024-01-27T10:04:50;101150.84;;;5.16;75.93
59877;BME280;74472;51.140;17.184;2024-01-27T10:07:16;101156.03;;;5.17;75.64
59877;BME280;74472;51.140;17.184;2024-01-27T10:09:41;101158.53;;;5.21;75.65
59877;BME280;74472;51.140;17.184;2024-01-27T10:12:09;101162.84;;;5.22;75.92
59877;BME280;74472;51.140;17.184;2024-01-27T10:14:42;101168.91;;;5.24;75.86
59877;BME280;74472;51.140;17.184;2024-01-27T10:17:11;101166.28;;;5.24;75.98
59877;BME280;74472;51.140;17.184;2024-01-27T10:19:36;101166.09;;;5.28;75.84
59877;BME280;74472;51.140;17.184;2024-01-27T10:22:02;101164.22;;;5.32;75.73
59877;BME280;74472;51.140;17.184;2024-01-27T10:24:28;101160.63;;;5.34;75.68
59877;BME280;74472;51.140;17.184;2024-01-27T10:27:01;101157.94;;;5.36;75.83
59877;BME280;74472;51.140;17.184;2024-01-27T10:29:26;101141.28;;;5.38;75.67
59877;BME280;74472;51.140;17.184;2024-01-27T10:31:52;101147.38;;;5.39;75.62
59877;BME280;74472;51.140;17.184;2024-01-27T10:34:20;101154.97;;;5.45;75.71
59877;BME280;74472;51.140;17.184;2024-01-27T10:36:45;101159.19;;;5.49;75.50
59877;BME280;74472;51.140;17.184;2024-01-27T10:39:20;101149.47;;;5.53;75.43
59877;BME280;74472;51.140;17.184;2024-01-27T10:41:46;101152.09;;;5.53;75.44
59877;BME280;74472;51.140;17.184;2024-01-27T10:44:14;101150.31;;;5.53;75.65
59877;BME280;74472;51.140;17.184;2024-01-27T10:46:43;101160.72;;;5.55;75.41
59877;BME280;74472;51.140;17.184;2024-01-27T10:49:12;101159.75;;;5.57;75.42
59877;BME280;74472;51.140;17.184;2024-01-27T10:51:40;101177.25;;;5.57;74.93
59877;BME280;74472;51.140;17.184;2024-01-27T10:54:13;101149.31;;;5.56;75.20
59877;BME280;74472;51.140;17.184;2024-01-27T10:56:39;101120.59;;;5.54;75.11
59877;BME280;74472;51.140;17.184;2024-01-27T10:59:08;101131.81;;;5.58;75.38
59877;BME280;74472;51.140;17.184;2024-01-27T11:01:36;101142.09;;;5.62;75.31
59877;BME280;74472;51.140;17.184;2024-01-27T11:04:03;101144.72;;;5.62;75.18
59877;BME280;74472;51.140;17.184;2024-01-27T11:06:31;101155.78;;;5.69;75.06
59877;BME280;74472;51.140;17.184;2024-01-27T11:08:57;101160.13;;;5.70;75.07
59877;BME280;74472;51.140;17.184;2024-01-27T11:11:23;101152.09;;;5.75;75.32
59877;BME280;74472;51.140;17.184;2024-01-27T11:13:49;101152.91;;;5.77;74.92
59877;BME280;74472;51.140;17.184;2024-01-27T11:16:17;101157.34;;;5.75;74.82
59877;BME280;74472;51.140;17.184;2024-01-27T11:18:43;101155.56;;;5.75;74.90
59877;BME280;74472;51.140;17.184;2024-01-27T11:21:14;101155.53;;;5.77;75.12
59877;BME280;74472;51.140;17.184;2024-01-27T11:23:40;101162.34;;;5.81;75.11
59877;BME280;74472;51.140;17.184;2024-01-27T11:26:06;101177.84;;;5.85;75.02
59877;BME280;74472;51.140;17.184;2024-01-27T11:28:32;101186.47;;;5.89;74.67
59877;BME280;74472;51.140;17.184;2024-01-27T11:30:57;101180.44;;;5.87;74.81
59877;BME280;74472;51.140;17.184;2024-01-27T11:33:26;101182.84;;;5.93;75.03
59877;BME280;74472;51.140;17.184;2024-01-27T11:36:18;101191.44;;;5.97;74.99
59877;BME280;74472;51.140;17.184;2024-01-27T11:38:43;101190.38;;;6.01;74.60
59877;BME280;74472;51.140;17.184;2024-01-27T11:41:09;101192.97;;;6.02;74.80
59877;BME280;74472;51.140;17.184;2024-01-27T11:43:34;101190.16;;;6.07;74.64
59877;BME280;74472;51.140;17.184;2024-01-27T11:46:00;101195.28;;;6.10;74.43
59877;BME280;74472;51.140;17.184;2024-01-27T11:48:26;101202.94;;;6.15;74.73
59877;BME280;74472;51.140;17.184;2024-01-27T11:51:04;101199.16;;;6.22;74.35
59877;BME280;74472;51.140;17.184;2024-01-27T11:53:30;101203.38;;;6.26;74.30
59877;BME280;74472;51.140;17.184;2024-01-27T11:55:56;101203.38;;;6.26;74.04
59877;BME280;74472;51.140;17.184;2024-01-27T11:58:21;101204.94;;;6.30;74.27
59877;BME280;74472;51.140;17.184;2024-01-27T12:00:47;101204.69;;;6.36;74.41
59877;BME280;74472;51.140;17.184;2024-01-27T12:03:12;101191.34;;;6.42;73.72
59877;BME280;74472;51.140;17.184;2024-01-27T12:05:38;101199.84;;;6.47;73.82
59877;BME280;74472;51.140;17.184;2024-01-27T12:08:04;101212.72;;;6.53;73.67
59877;BME280;74472;51.140;17.184;2024-01-27T12:10:32;101206.41;;;6.57;74.01
59877;BME280;74472;51.140;17.184;2024-01-27T12:12:57;101210.56;;;6.63;73.99
59877;BME280;74472;51.140;17.184;2024-01-27T12:15:23;101217.31;;;6.69;73.64
59877;BME280;74472;51.140;17.184;2024-01-27T12:17:52;101212.91;;;6.69;73.71
59877;BME280;74472;51.140;17.184;2024-01-27T12:20:17;101219.72;;;6.73;73.57
59877;BME280;74472;51.140;17.184;2024-01-27T12:22:43;101230.81;;;6.80;73.62
59877;BME280;74472;51.140;17.184;2024-01-27T12:25:10;101241.97;;;6.85;73.77
59877;BME280;74472;51.140;17.184;2024-01-27T12:27:36;101239.16;;;6.90;73.34
59877;BME280;74472;51.140;17.184;2024-01-27T12:30:02;101239.88;;;6.93;73.34
59877;BME280;74472;51.140;17.184;2024-01-27T12:32:27;101247.47;;;6.99;73.12
59877;BME280;74472;51.140;17.184;2024-01-27T12:34:53;101264.06;;;7.00;72.52
59877;BME280;74472;51.140;17.184;2024-01-27T12:37:21;101253.66;;;6.98;72.59
59877;BME280;74472;51.140;17.184;2024-01-27T12:39:46;101255.44;;;6.98;73.36
59877;BME280;74472;51.140;17.184;2024-01-27T12:42:12;101257.84;;;7.02;73.26
59877;BME280;74472;51.140;17.184;2024-01-27T12:44:39;101262.00;;;7.08;73.00